createdAt,value
2022-10-13T00:01:11.240Z,99219.47
2022-10-13T00:03:40.326Z,99301.53
2022-10-13T00:06:09.919Z,99294.94
2022-10-13T00:08:38.443Z,99298.97
2022-10-13T00:11:12.965Z,99286.00
2022-10-13T00:13:43.017Z,99300.00
2022-10-13T00:16:12.266Z,99288.44
2022-10-13T00:18:40.448Z,99291.56
2022-10-13T00:21:10.158Z,99300.56
2022-10-13T00:23:38.642Z,99295.34
2022-10-13T00:26:08.810Z,99297.50
2022-10-13T00:28:37.253Z,99289.69
2022-10-13T00:31:16.919Z,99298.56
2022-10-13T00:33:45.101Z,99271.09
2022-10-13T00:36:13.285Z,99294.41
2022-10-13T00:38:41.291Z,99283.84
2022-10-13T00:41:09.364Z,99309.91
2022-10-13T00:43:55.315Z,99302.03
2022-10-13T00:46:26.202Z,99302.78
2022-10-13T00:48:55.180Z,99300.88
2022-10-13T00:51:27.101Z,99281.09
2022-10-13T00:53:56.539Z,99282.88
2022-10-13T00:56:27.448Z,99301.47
2022-10-13T00:58:57.362Z,99289.47
2022-10-13T01:01:27.010Z,99289.56
2022-10-13T01:03:55.016Z,99284.94
2022-10-13T01:06:23.947Z,99280.94
2022-10-13T01:08:52.305Z,99290.22
2022-10-13T01:11:34.850Z,99294.34
2022-10-13T01:14:12.461Z,99280.31
2022-10-13T01:16:51.412Z,99259.09
2022-10-13T01:19:39.647Z,99301.72
2022-10-13T01:22:22.310Z,99276.44
2022-10-13T01:24:59.944Z,99292.75
2022-10-13T01:27:52.963Z,99294.78
2022-10-13T01:30:24.312Z,99294.06
2022-10-13T01:33:20.419Z,99277.38
2022-10-13T01:36:02.145Z,99286.16
2022-10-13T01:38:37.818Z,99286.56
2022-10-13T01:41:13.578Z,99273.88
2022-10-13T01:43:46.791Z,99282.09
2022-10-13T01:46:22.254Z,99280.19
2022-10-13T01:48:54.162Z,99279.94
2022-10-13T01:51:24.865Z,99289.75
2022-10-13T01:53:53.048Z,99278.88
2022-10-13T01:56:21.123Z,99281.09
2022-10-13T01:58:51.090Z,99277.53
2022-10-13T02:01:35.833Z,99295.66
2022-10-13T02:04:38.613Z,99284.16
2022-10-13T02:07:16.821Z,99284.94
2022-10-13T02:09:56.191Z,99283.03
2022-10-13T02:12:30.896Z,99276.91
2022-10-13T02:15:01.893Z,99272.09
2022-10-13T02:17:32.851Z,99215.22
2022-10-13T02:20:00.975Z,99287.38
2022-10-13T02:22:34.779Z,99286.50
2022-10-13T02:25:02.533Z,99290.38
2022-10-13T02:27:30.533Z,99285.28
2022-10-13T02:29:58.930Z,99275.34
2022-10-13T02:32:27.018Z,99223.19
2022-10-13T02:34:56.429Z,99283.16
2022-10-13T02:37:25.608Z,99281.94
2022-10-13T02:39:53.740Z,99279.88
2022-10-13T02:42:22.064Z,99275.53
2022-10-13T02:44:50.186Z,99278.72
2022-10-13T02:47:18.192Z,99274.63
2022-10-13T02:49:46.246Z,99258.63
2022-10-13T02:52:15.966Z,99251.06
2022-10-13T02:54:44.028Z,99271.03
2022-10-13T02:57:12.038Z,99259.25
2022-10-13T02:59:40.048Z,99249.69
2022-10-13T03:02:08.102Z,99255.47
2022-10-13T03:04:36.497Z,99237.47
2022-10-13T03:07:04.510Z,99222.34
2022-10-13T03:09:34.185Z,99238.94
2022-10-13T03:12:02.150Z,99234.00
2022-10-13T03:14:30.206Z,99210.81
2022-10-13T03:16:58.158Z,99222.19
2022-10-13T03:19:26.181Z,99231.03
2022-10-13T03:21:54.185Z,99221.09
2022-10-13T03:24:22.317Z,99164.59
2022-10-13T03:26:51.832Z,99239.47
2022-10-13T03:29:19.862Z,99252.03
2022-10-13T03:31:48.032Z,99226.13
2022-10-13T03:34:17.797Z,99229.13
2022-10-13T03:36:45.767Z,99224.22
2022-10-13T03:39:13.906Z,99205.00
2022-10-13T03:41:41.930Z,99173.84
2022-10-13T03:44:13.430Z,99233.69
2022-10-13T03:46:41.737Z,99220.91
2022-10-13T03:49:11.338Z,99226.28
2022-10-13T03:51:39.836Z,99213.09
2022-10-13T03:54:07.935Z,99215.00
2022-10-13T03:56:35.957Z,99219.06
2022-10-13T03:59:05.200Z,99224.69
2022-10-13T04:01:35.517Z,99221.72
2022-10-13T04:04:03.711Z,99242.06
2022-10-13T04:06:32.528Z,99233.78
2022-10-13T04:09:00.537Z,99141.09
2022-10-13T04:11:28.588Z,99222.03
2022-10-13T04:13:57.883Z,99227.72
2022-10-13T04:16:28.013Z,99236.75
2022-10-13T04:18:59.305Z,99213.72
2022-10-13T04:21:28.395Z,99246.38
2022-10-13T04:23:58.339Z,99224.78
2022-10-13T04:26:29.075Z,99249.25
2022-10-13T04:28:58.312Z,99234.00
2022-10-13T04:31:26.645Z,99249.81
2022-10-13T04:33:54.852Z,99241.72
2022-10-13T04:36:25.640Z,99243.03
2022-10-13T04:38:54.614Z,99243.66
2022-10-13T04:41:23.341Z,99215.72
2022-10-13T04:43:52.252Z,99214.44
2022-10-13T04:46:22.839Z,99233.38
2022-10-13T04:48:51.347Z,99219.75
2022-10-13T04:51:22.126Z,99221.53
2022-10-13T04:53:56.141Z,99225.91
2022-10-13T04:56:24.210Z,99170.72
2022-10-13T04:58:52.400Z,99217.28
2022-10-13T05:01:23.579Z,99223.34
2022-10-13T05:03:55.079Z,99230.69
2022-10-13T05:06:25.572Z,99226.78
2022-10-13T05:08:55.028Z,99206.88
2022-10-13T05:11:24.436Z,99210.38
2022-10-13T05:13:52.686Z,99215.81
2022-10-13T05:16:22.287Z,99197.78
2022-10-13T05:18:51.375Z,99196.72
2022-10-13T05:21:22.168Z,99198.06
2022-10-13T05:23:53.959Z,99220.97
2022-10-13T05:26:28.646Z,99219.34
2022-10-13T05:28:56.822Z,99205.56
2022-10-13T05:31:26.414Z,99217.72
2022-10-13T05:33:54.717Z,99216.78
2022-10-13T05:36:25.257Z,99221.34
2022-10-13T05:38:54.495Z,99234.38
2022-10-13T05:41:25.104Z,99178.88
2022-10-13T05:43:57.347Z,99201.16
2022-10-13T05:46:25.539Z,99241.75
2022-10-13T05:48:53.628Z,99247.25
2022-10-13T05:51:25.611Z,99238.69
2022-10-13T05:53:59.872Z,99237.25
2022-10-13T05:56:37.048Z,99242.38
2022-10-13T05:59:09.264Z,99230.09
2022-10-13T06:01:40.952Z,99227.22
2022-10-13T06:04:13.142Z,99237.69
2022-10-13T06:06:41.264Z,99220.34
2022-10-13T06:09:09.371Z,99229.75
2022-10-13T06:11:38.819Z,99223.94
2022-10-13T06:14:06.876Z,99203.53
2022-10-13T06:16:36.878Z,99213.13
2022-10-13T06:19:05.648Z,99211.97
2022-10-13T06:21:35.755Z,99215.50
2022-10-13T06:24:04.162Z,99221.03
2022-10-13T06:26:32.151Z,99196.28
2022-10-13T06:29:01.743Z,99206.59
2022-10-13T06:31:29.842Z,99212.22
2022-10-13T06:33:59.068Z,99211.78
2022-10-13T06:36:27.760Z,99227.63
2022-10-13T06:38:55.823Z,99220.22
2022-10-13T06:41:24.117Z,99209.91
2022-10-13T06:43:52.282Z,99226.78
2022-10-13T06:46:21.686Z,99205.13
2022-10-13T06:48:51.236Z,99202.13
2022-10-13T06:51:19.610Z,99208.41
2022-10-13T06:53:47.590Z,99206.38
2022-10-13T06:56:15.621Z,99204.78
2022-10-13T06:58:43.754Z,99214.66
2022-10-13T07:01:13.919Z,99210.81
2022-10-13T07:03:43.319Z,99211.66
2022-10-13T07:06:11.872Z,99202.72
2022-10-13T07:08:39.862Z,99208.81
2022-10-13T07:11:14.541Z,99194.66
2022-10-13T07:14:36.503Z,99205.47
2022-10-13T07:17:05.307Z,99192.09
2022-10-13T07:19:34.830Z,99191.34
2022-10-13T07:22:04.004Z,99218.56
2022-10-13T07:24:32.132Z,99207.44
2022-10-13T07:27:03.957Z,99212.00
2022-10-13T07:29:34.862Z,99203.38
2022-10-13T07:32:02.879Z,99192.00
2022-10-13T07:34:30.826Z,99210.78
2022-10-13T07:37:00.180Z,99189.75
2022-10-13T07:39:28.250Z,99214.72
2022-10-13T07:41:56.788Z,99213.66
2022-10-13T07:44:24.873Z,99212.97
2022-10-13T07:46:52.909Z,99217.59
2022-10-13T07:49:21.026Z,99212.34
2022-10-13T07:51:49.024Z,99189.81
2022-10-13T07:54:22.530Z,99171.16
2022-10-13T07:56:54.142Z,99160.25
2022-10-13T07:59:22.538Z,99152.50
2022-10-13T08:01:50.670Z,99214.03
2022-10-13T08:04:18.841Z,99215.81
2022-10-13T08:06:47.189Z,99210.66
2022-10-13T08:09:15.280Z,99175.16
2022-10-13T08:11:44.736Z,99201.69
2022-10-13T08:14:14.244Z,99153.31
2022-10-13T08:16:48.610Z,99149.00
2022-10-13T08:19:22.224Z,99118.47
2022-10-13T08:21:58.333Z,99154.47
2022-10-13T08:24:28.139Z,99203.00
2022-10-13T08:26:57.835Z,99201.81
2022-10-13T08:29:25.942Z,99151.63
2022-10-13T08:31:55.258Z,99186.31
2022-10-13T08:34:24.274Z,99130.22
2022-10-13T08:36:53.615Z,99131.69
2022-10-13T08:39:22.508Z,99188.78
2022-10-13T08:41:51.314Z,99169.75
2022-10-13T08:47:24.204Z,99102.25
2022-10-13T08:49:57.750Z,99157.16
2022-10-13T08:52:31.805Z,99176.19
2022-10-13T08:54:59.895Z,99182.22
2022-10-13T08:57:44.732Z,99090.03
2022-10-13T09:00:16.164Z,99156.63
2022-10-13T09:06:08.952Z,99124.41
2022-10-13T09:08:44.369Z,99098.47
2022-10-13T09:12:00.986Z,99097.47
2022-10-13T09:14:31.659Z,99152.59
2022-10-13T09:20:02.592Z,99101.81
2022-10-13T09:25:29.278Z,99108.16
2022-10-13T09:27:59.167Z,99186.47
2022-10-13T09:30:32.126Z,99197.22
2022-10-13T09:33:24.384Z,99196.03
2022-10-13T09:36:11.209Z,99199.09
2022-10-13T09:38:41.142Z,99184.75
2022-10-13T09:41:17.136Z,99185.28
2022-10-13T09:44:06.362Z,99181.03
2022-10-13T09:46:38.716Z,99173.88
2022-10-13T09:49:31.107Z,99181.03
2022-10-13T09:52:49.601Z,99082.91
2022-10-13T09:55:38.417Z,99138.09
2022-10-13T09:58:15.375Z,99099.75
2022-10-13T10:00:51.351Z,99175.28
2022-10-13T10:03:23.305Z,99161.78
2022-10-13T10:05:55.843Z,99149.22
2022-10-13T10:08:50.936Z,99109.63
2022-10-13T10:11:28.825Z,99149.34
2022-10-13T10:13:57.297Z,99149.78
2022-10-13T10:16:32.300Z,99105.09
2022-10-13T10:19:06.889Z,99173.16
2022-10-13T10:21:45.062Z,99139.91
2022-10-13T10:24:26.541Z,99145.53
2022-10-13T10:26:58.900Z,99119.28
2022-10-13T10:29:38.636Z,99153.25
2022-10-13T10:32:23.156Z,99162.28
2022-10-13T10:34:56.923Z,99105.25
2022-10-13T10:37:47.882Z,99109.56
2022-10-13T10:40:31.118Z,99110.13
2022-10-13T10:43:38.508Z,99152.19
2022-10-13T10:46:13.623Z,99182.63
2022-10-13T10:48:41.891Z,99109.31
2022-10-13T10:51:12.755Z,99133.19
2022-10-13T10:53:52.268Z,99096.19
2022-10-13T10:56:26.735Z,99116.56
2022-10-13T10:59:04.811Z,99087.63
2022-10-13T11:01:39.252Z,99120.19
2022-10-13T11:04:42.712Z,99150.22
2022-10-13T11:07:19.163Z,99134.25
2022-10-13T11:10:21.604Z,99093.81
2022-10-13T11:13:42.362Z,99058.25
2022-10-13T11:16:38.809Z,99051.69
2022-10-13T11:19:32.206Z,99099.28
2022-10-13T11:22:17.246Z,99056.63
2022-10-13T11:25:25.524Z,99051.56
2022-10-13T11:28:00.468Z,99128.00
2022-10-13T11:30:50.640Z,99040.56
2022-10-13T11:37:03.885Z,99047.97
2022-10-13T11:43:25.455Z,99031.06
2022-10-13T11:46:26.196Z,99026.09
2022-10-13T11:49:31.121Z,99033.91
2022-10-13T11:52:29.800Z,99067.66
2022-10-13T11:55:04.705Z,99013.34
2022-10-13T11:57:33.333Z,99027.94
2022-10-13T12:00:03.276Z,99056.09
2022-10-13T12:02:31.812Z,99045.72
2022-10-13T12:05:05.351Z,98993.56
2022-10-13T12:07:36.645Z,98997.22
2022-10-13T12:10:09.037Z,99057.53
2022-10-13T12:12:37.852Z,98981.97
2022-10-13T12:15:31.392Z,98982.75
2022-10-13T12:18:00.110Z,99024.00
2022-10-13T12:20:31.719Z,99015.31
2022-10-13T12:23:00.148Z,98994.72
2022-10-13T12:25:34.196Z,99038.13
2022-10-13T12:28:03.690Z,99014.28
2022-10-13T12:30:36.476Z,98988.19
2022-10-13T12:33:20.873Z,99006.69
2022-10-13T12:35:49.167Z,99042.91
2022-10-13T12:38:19.947Z,99064.28
2022-10-13T12:40:49.663Z,99010.09
2022-10-13T12:43:21.445Z,99011.75
2022-10-13T12:45:51.093Z,99001.44
2022-10-13T12:48:33.506Z,99019.09
2022-10-13T12:51:18.421Z,98982.97
2022-10-13T12:53:47.891Z,98982.88
2022-10-13T12:56:29.598Z,98996.75
2022-10-13T12:58:58.601Z,98989.72
2022-10-13T13:01:33.811Z,98962.19
2022-10-13T13:04:16.409Z,99001.53
2022-10-13T13:06:54.577Z,99014.41
2022-10-13T13:09:25.642Z,99013.34
2022-10-13T13:12:34.137Z,98997.00
2022-10-13T13:15:33.010Z,99020.13
2022-10-13T13:18:41.759Z,98955.03
2022-10-13T13:21:14.363Z,98976.41
2022-10-13T13:23:43.185Z,98960.78
2022-10-13T13:26:14.492Z,98975.81
2022-10-13T13:28:46.707Z,99025.97
2022-10-13T13:31:17.844Z,98985.63
2022-10-13T13:33:46.023Z,98973.44
2022-10-13T13:36:20.096Z,98978.03
2022-10-13T13:39:07.856Z,98964.72
2022-10-13T13:41:35.930Z,99019.41
2022-10-13T13:44:03.942Z,99040.59
2022-10-13T13:46:32.306Z,99043.19
2022-10-13T13:49:00.350Z,99039.19
2022-10-13T13:51:29.948Z,99035.41
2022-10-13T13:53:57.963Z,99032.28
2022-10-13T13:56:26.291Z,99032.44
2022-10-13T13:58:54.312Z,99034.25
2022-10-13T14:01:23.386Z,99030.91
2022-10-13T14:03:54.815Z,99021.78
2022-10-13T14:06:23.692Z,99030.59
2022-10-13T14:08:54.481Z,99030.03
2022-10-13T14:11:24.740Z,99016.94
2022-10-13T14:13:58.526Z,99024.16
2022-10-13T14:16:27.414Z,99033.06
2022-10-13T14:18:58.589Z,99026.53
2022-10-13T14:21:27.757Z,99026.16
2022-10-13T14:23:58.403Z,99006.16
2022-10-13T14:26:27.806Z,99028.06
2022-10-13T14:28:56.831Z,99014.13
2022-10-13T14:31:26.559Z,99034.38
2022-10-13T14:33:55.802Z,99006.53
2022-10-13T14:36:24.885Z,99019.41
2022-10-13T14:38:55.957Z,99020.47
2022-10-13T14:41:34.245Z,98995.47
2022-10-13T14:44:07.062Z,99021.09
2022-10-13T14:46:41.952Z,99006.38
2022-10-13T14:49:13.902Z,99016.47
2022-10-13T14:51:41.952Z,99013.75
2022-10-13T14:54:09.932Z,98999.38
2022-10-13T14:56:39.343Z,99006.75
2022-10-13T14:59:08.595Z,99013.03
2022-10-13T15:01:36.603Z,99014.19
2022-10-13T15:04:04.914Z,99008.34
2022-10-13T15:06:33.288Z,99014.78
2022-10-13T15:09:01.327Z,99004.00
2022-10-13T15:11:29.331Z,99009.81
2022-10-13T15:13:58.898Z,98997.44
2022-10-13T15:16:28.776Z,98998.66
2022-10-13T15:18:57.799Z,99002.50
2022-10-13T15:21:26.262Z,98994.53
2022-10-13T15:23:54.266Z,98997.34
2022-10-13T15:26:22.388Z,98990.78
2022-10-13T15:28:52.730Z,98997.72
2022-10-13T15:31:23.606Z,98985.88
2022-10-13T15:33:53.144Z,98998.25
2022-10-13T15:36:22.789Z,99008.75
2022-10-13T15:38:51.570Z,99003.44
2022-10-13T15:41:19.930Z,99002.06
2022-10-13T15:43:48.045Z,98993.34
2022-10-13T15:46:21.468Z,98993.03
2022-10-13T15:48:51.293Z,98995.31
2022-10-13T15:51:21.402Z,98992.97
2022-10-13T15:53:49.777Z,98997.91
2022-10-13T15:56:18.549Z,98979.34
2022-10-13T15:58:46.786Z,98969.25
2022-10-13T16:01:15.657Z,98995.00
2022-10-13T16:03:43.935Z,98992.47
2022-10-13T16:06:14.368Z,98991.53
2022-10-13T16:08:44.728Z,98992.13
2022-10-13T16:11:14.861Z,98983.19
2022-10-13T16:13:46.200Z,98986.44
2022-10-13T16:16:14.342Z,98996.16
2022-10-13T16:18:42.617Z,98990.94
2022-10-13T16:21:17.270Z,98993.91
2022-10-13T16:23:48.422Z,99003.38
2022-10-13T16:26:17.512Z,98997.72
2022-10-13T16:28:45.941Z,98964.59
2022-10-13T16:31:15.926Z,98998.69
2022-10-13T17:02:14.764Z,98972.81
2022-10-13T17:04:42.982Z,98970.25
2022-10-13T17:07:11.305Z,99010.72
2022-10-13T17:09:39.601Z,99018.19
2022-10-13T17:12:08.331Z,98976.72
2022-10-13T17:14:37.796Z,98982.06
2022-10-13T17:17:06.015Z,99022.56
2022-10-13T17:19:35.970Z,98985.75
2022-10-13T17:22:04.198Z,98975.47
2022-10-13T17:24:33.040Z,98999.44
2022-10-13T17:27:07.264Z,98976.72
2022-10-13T17:29:35.476Z,98974.31
2022-10-13T17:32:03.615Z,98996.53
2022-10-13T17:34:31.890Z,99038.69
2022-10-13T17:37:01.716Z,98953.25
2022-10-13T17:39:30.119Z,99011.66
2022-10-13T17:41:58.556Z,99013.06
2022-10-13T17:44:26.789Z,98977.09
2022-10-13T17:46:55.083Z,98977.94
2022-10-13T17:49:23.662Z,99048.41
2022-10-13T17:51:53.663Z,98960.00
2022-10-13T17:54:24.555Z,99000.94
2022-10-13T17:56:52.997Z,98964.50
2022-10-13T17:59:21.317Z,99012.03
2022-10-13T18:01:49.789Z,98980.13
2022-10-13T18:04:20.983Z,98961.53
2022-10-13T18:06:49.181Z,98939.69
2022-10-13T18:09:19.335Z,99043.72
2022-10-13T18:11:51.402Z,99050.09
2022-10-13T18:14:20.518Z,99032.47
2022-10-13T18:16:51.411Z,99035.84
2022-10-13T18:19:19.450Z,99028.94
2022-10-13T18:21:47.445Z,99043.88
2022-10-13T18:24:15.689Z,99038.09
2022-10-13T18:26:43.689Z,99036.66
2022-10-13T18:29:14.657Z,99027.66
2022-10-13T18:31:44.638Z,99034.06
2022-10-13T18:34:15.195Z,99037.47
2022-10-13T18:36:47.411Z,99037.47
2022-10-13T18:39:18.069Z,99047.59
2022-10-13T18:41:47.030Z,99045.88
2022-10-13T18:44:18.123Z,99038.84
2022-10-13T18:46:47.830Z,99041.94
2022-10-13T18:49:18.330Z,99033.19
2022-10-13T18:51:47.148Z,99031.53
2022-10-13T18:54:15.513Z,99035.34
2022-10-13T18:56:44.441Z,99042.25
2022-10-13T18:59:13.048Z,99035.59
2022-10-13T19:01:43.618Z,99018.06
2022-10-13T19:04:14.919Z,99038.25
2022-10-13T19:06:44.917Z,99037.53
2022-10-13T19:09:15.335Z,99034.34
2022-10-13T19:11:43.466Z,99024.19
2022-10-13T19:14:14.755Z,99014.88
2022-10-13T19:16:45.444Z,99027.44
2022-10-13T19:19:14.438Z,99031.69
2022-10-13T19:21:43.442Z,99024.66
2022-10-13T19:24:12.603Z,99033.00
2022-10-13T19:26:41.071Z,99034.34
2022-10-13T19:29:12.019Z,99030.97
2022-10-13T19:31:41.608Z,99035.59
2022-10-13T19:34:13.465Z,99036.31
2022-10-13T19:36:43.721Z,99036.91
2022-10-13T19:39:16.943Z,99040.41
2022-10-13T19:41:46.619Z,99050.25
2022-10-13T19:44:15.609Z,99039.69
2022-10-13T19:46:45.194Z,99049.69
2022-10-13T19:49:17.363Z,99054.94
2022-10-13T19:59:57.575Z,99012.16
2022-10-13T22:26:16.966Z,99029.13
2022-10-13T22:29:00.414Z,98963.31
2022-10-13T22:33:06.805Z,98964.91
2022-10-13T22:35:50.629Z,99005.81
2022-10-13T22:38:36.379Z,98965.81
2022-10-13T22:44:04.333Z,98953.69
2022-10-13T22:46:50.253Z,98996.25
2022-10-13T22:49:18.752Z,99043.97
2022-10-13T22:51:49.787Z,98961.91
2022-10-13T22:54:18.093Z,99010.16
2022-10-13T22:56:46.489Z,98985.16
2022-10-13T22:59:15.243Z,98986.69
2022-10-13T23:01:43.518Z,99027.66
2022-10-13T23:04:11.927Z,98939.50
2022-10-13T23:06:40.249Z,98943.16
2022-10-13T23:09:13.499Z,99010.00
2022-10-13T23:11:42.299Z,99024.69
2022-10-13T23:14:10.718Z,98995.91
2022-10-13T23:16:38.880Z,98938.50
2022-10-13T23:19:08.868Z,98927.16
2022-10-13T23:21:37.085Z,98943.03
2022-10-13T23:24:08.408Z,99003.13
2022-10-13T23:26:38.148Z,98929.00
2022-10-13T23:29:07.071Z,98934.91
2022-10-13T23:31:35.372Z,98962.53
2022-10-13T23:34:03.801Z,99011.63
2022-10-13T23:36:33.719Z,98969.94
2022-10-13T23:39:04.805Z,98973.25
2022-10-13T23:41:33.179Z,98968.00
2022-10-13T23:44:03.445Z,98937.03
2022-10-13T23:46:31.803Z,98970.13
2022-10-13T23:48:59.994Z,98947.88
2022-10-13T23:51:28.383Z,98913.19
2022-10-13T23:53:57.530Z,98942.53
2022-10-13T23:56:26.055Z,98960.59
2022-10-13T23:58:54.609Z,98903.97
